Frenchville, Maine
Current Conditions -  °F | °C
As of 11:16 AM on Monday 22 Dec 2014 (Local Time) from KFVE Reporting Station
Overcast Overcast  
Wind Chill: 21°   Ceiling: 2900
Heat Index: 21°   Visibility: 10mi
Dew Point: 19°   Wind: 0mph
Humidity: 92%   Direction: NA
Pressure: 30.37"   Gusts: NA
Location:  47.28°N, 68.38°W
Report Text: KFVE 221616Z AUTO 00000KT 10SM SCT014 OVC029 M06/M07 A3037 RMK AO2 T10611072
Loading
Personal Weather Stations






























Interactive Weather Map New forecast layout! Learn more

10-Day Weather Forecast

Advertisements
Track Severe Weather on mobile